createdAt,value
2019-05-16T00:08:01.142Z,2.3
2019-05-16T00:12:48.746Z,2.4
2019-05-16T00:17:41.302Z,2.8
2019-05-16T00:25:24.129Z,2.5
2019-05-16T00:30:10.937Z,2.2
2019-05-16T00:34:58.470Z,2.2
2019-05-16T00:44:28.051Z,2.8
2019-05-16T00:49:15.873Z,3.1
2019-05-16T00:54:03.267Z,3.3
2019-05-16T01:02:48.616Z,3.8
2019-05-16T01:07:38.869Z,3.8
2019-05-16T01:12:28.228Z,4.8
2019-05-16T01:20:02.274Z,5.2
2019-05-16T01:24:49.849Z,5.3
2019-05-16T01:29:38.495Z,6.2
2019-05-16T01:38:10.131Z,6.2
2019-05-16T01:42:57.857Z,7
2019-05-16T01:47:44.891Z,7.6
2019-05-16T01:56:48.082Z,8.1
2019-05-16T02:01:37.698Z,8.6
2019-05-16T02:06:25.393Z,10
2019-05-16T02:14:17.691Z,10.2
2019-05-16T02:19:04.561Z,10.3
2019-05-16T02:23:51.897Z,11.4
2019-05-16T02:33:25.284Z,10.4
2019-05-16T02:38:12.115Z,10
2019-05-16T02:43:01.681Z,10.2
2019-05-16T02:51:43.853Z,10
2019-05-16T02:56:31.923Z,9.6
2019-05-16T03:01:21.607Z,10.4
2019-05-16T03:09:16.366Z,10.3
2019-05-16T03:14:04.113Z,9.2
2019-05-16T03:18:51.624Z,9.6
2019-05-16T03:27:10.871Z,7.6
2019-05-16T03:32:03.073Z,6.7
2019-05-16T03:36:54.436Z,6.5
2019-05-16T03:44:45.292Z,5.4
2019-05-16T03:49:41.995Z,4.9
2019-05-16T03:54:31.429Z,5
2019-05-16T04:02:45.725Z,4.4
2019-05-16T04:07:32.738Z,4
2019-05-16T04:12:21.335Z,4.2
2019-05-16T04:20:33.789Z,4.5
2019-05-16T04:25:21.848Z,4.6
2019-05-16T04:30:11.640Z,5.4
2019-05-16T04:37:55.939Z,5.1
2019-05-16T04:42:44.217Z,5
2019-05-16T04:47:32.000Z,5.6
2019-05-16T04:55:34.706Z,5.7
2019-05-16T05:00:22.325Z,5
2019-05-16T05:05:12.670Z,5.5
2019-05-16T05:13:41.082Z,4.6
2019-05-16T05:18:30.266Z,4.5
2019-05-16T05:23:17.642Z,4.7
2019-05-16T05:32:20.021Z,4.1
2019-05-16T05:37:07.763Z,4
2019-05-16T05:41:56.745Z,4.1
2019-05-16T05:51:33.367Z,3.1
2019-05-16T05:56:20.620Z,3.2
2019-05-16T06:01:10.878Z,4.1
2019-05-16T06:10:31.035Z,3.8
2019-05-16T06:15:20.082Z,3.4
2019-05-16T06:20:14.054Z,4
2019-05-16T06:29:44.682Z,4.2
2019-05-16T06:34:32.317Z,4.3
2019-05-16T06:39:19.888Z,4.8
2019-05-16T06:48:53.475Z,3.9
2019-05-16T06:53:41.325Z,3.7
2019-05-16T06:58:30.310Z,4.4
2019-05-16T07:08:33.329Z,4.7
2019-05-16T07:13:21.161Z,4.9
2019-05-16T07:18:12.635Z,5.4
2019-05-16T07:27:21.879Z,5.5
2019-05-16T07:32:08.814Z,6.2
2019-05-16T07:36:56.274Z,8
2019-05-16T07:46:44.472Z,8.1
2019-05-16T07:51:33.041Z,8.3
2019-05-16T07:56:20.553Z,9.8
2019-05-16T08:04:46.532Z,9
2019-05-16T08:09:34.121Z,9.1
2019-05-16T08:14:21.475Z,9.3
2019-05-16T08:23:33.290Z,9.4
2019-05-16T08:35:11.188Z,11.3
2019-05-16T08:44:02.678Z,9.9
2019-05-16T08:48:54.077Z,9.5
2019-05-16T08:53:43.638Z,10
2019-05-16T08:59:43.708Z,9
2019-05-16T09:10:19.012Z,8.2
2019-05-16T09:10:34.907Z,8.9
2019-05-16T09:11:35.595Z,8.8
2019-05-16T09:17:27.908Z,7.7
2019-05-16T09:22:17.547Z,7.1
2019-05-16T09:27:10.793Z,9
2019-05-16T09:36:29.868Z,6.9
2019-05-16T09:41:17.747Z,5.9
2019-05-16T09:46:07.806Z,6
2019-05-16T09:54:54.537Z,4.7
2019-05-16T09:59:43.273Z,4.5
2019-05-16T10:04:31.831Z,4.8
2019-05-16T10:12:44.931Z,4.8
2019-05-16T10:17:32.661Z,3.5
2019-05-16T10:22:20.066Z,4.5
2019-05-16T10:32:09.423Z,3.7
2019-05-16T10:36:57.597Z,4.6
2019-05-16T10:41:46.649Z,5.6
2019-05-16T10:51:11.619Z,8.1
2019-05-16T10:55:59.664Z,5.9
2019-05-16T11:11:39.498Z,5.1
2019-05-16T11:16:28.003Z,4.9
2019-05-16T11:21:18.968Z,4.7
2019-05-16T11:26:08.200Z,5.1
2019-05-16T11:33:11.365Z,5
2019-05-16T11:37:59.779Z,5
2019-05-16T11:42:56.943Z,6
2019-05-16T11:47:54.102Z,6.6
2019-05-16T11:53:51.605Z,6
2019-05-16T11:58:39.019Z,4.9
2019-05-16T12:03:28.163Z,5.9
2019-05-16T12:08:17.533Z,6.7
2019-05-16T12:15:20.039Z,6.8
2019-05-16T12:20:07.963Z,10.7
2019-05-16T12:24:57.444Z,13.2
2019-05-16T12:33:31.980Z,15.9
2019-05-16T12:38:19.227Z,16.1
2019-05-16T12:43:07.950Z,17.9
2019-05-16T12:51:49.935Z,17.1
2019-05-16T12:56:37.695Z,17.2
2019-05-16T13:01:30.675Z,19.5
2019-05-16T13:09:57.385Z,17.3
2019-05-16T13:14:44.941Z,18.4
2019-05-16T13:19:33.849Z,19.2
2019-05-16T13:29:17.847Z,19
2019-05-16T13:34:07.312Z,17.5
2019-05-16T13:38:56.900Z,20.9
2019-05-16T13:43:45.442Z,20.5
2019-05-16T13:49:45.192Z,19.8
2019-05-16T13:54:32.095Z,18.9
2019-05-16T13:59:21.108Z,23.4
2019-05-16T14:08:20.757Z,21.7
2019-05-16T14:13:07.836Z,21.2
2019-05-16T14:17:56.840Z,24.4
2019-05-16T14:28:45.524Z,21.8
2019-05-16T14:33:36.672Z,20.1
2019-05-16T14:38:26.775Z,23.3
2019-05-16T16:41:03.000Z,20.4
2019-05-16T16:46:04.059Z,21.6
2019-05-16T16:50:57.392Z,20.5
2019-05-16T16:55:47.424Z,22.6
2019-05-16T17:00:37.870Z,23.3
2019-05-16T17:09:50.547Z,19.1
2019-05-16T17:14:37.533Z,17.3
2019-05-16T17:19:24.716Z,20.3
2019-05-16T17:24:11.965Z,21.2
2019-05-16T17:31:33.907Z,18.3
2019-05-16T17:36:20.993Z,17.7
2019-05-16T17:41:07.885Z,19.9
2019-05-16T17:45:57.299Z,20.7
2019-05-16T17:53:57.109Z,16.5
2019-05-16T17:58:44.717Z,16.3
2019-05-16T18:03:31.907Z,19
2019-05-16T18:08:19.522Z,20.5
2019-05-16T18:14:26.670Z,18.3
2019-05-16T18:19:14.071Z,16.9
2019-05-16T18:24:01.164Z,19.4
2019-05-16T18:28:48.111Z,21.5
2019-05-16T18:37:20.334Z,19.4
2019-05-16T18:42:07.503Z,17.3
2019-05-16T18:47:06.632Z,25.9
2019-05-16T18:52:01.346Z,24.3
2019-05-16T18:59:49.857Z,21.5
2019-05-16T19:04:38.498Z,22.4
2019-05-16T19:09:26.816Z,26.1
2019-05-16T19:14:16.742Z,29.1
2019-05-16T19:20:32.186Z,26.6
2019-05-16T19:25:19.842Z,25.7
2019-05-16T19:30:07.914Z,30.5
2019-05-16T19:34:57.278Z,31.3
2019-05-16T19:40:53.969Z,28.5
2019-05-16T19:45:41.259Z,27.7
2019-05-16T19:50:28.450Z,31.7
2019-05-16T19:55:15.557Z,32.3
2019-05-16T20:02:59.377Z,31
2019-05-16T20:07:47.073Z,28.4
2019-05-16T20:12:34.220Z,32.5
2019-05-16T20:17:21.294Z,33
2019-05-16T20:25:16.456Z,29.5
2019-05-16T20:30:06.522Z,29.5
